Forside
METAR-TAF:

METAR-TAF

Lufthavne :

Gibraltar Lufthavn

Gibraltar, Gibraltar

Breddekreds: 36-09N, længdekreds: 005-21W, højde: 5 m

Aktuelle vejr

Denne rapport blev lavet for 47 minutter siden, kl. 00:50 UTC
Vind 6 kt fra vestsydvest
Temperatur 14°C
Fugtighed 67%
Tryk 1025 hPa
Sigt 10 km eller mere

METAR: LXGB 240050Z AUTO 25006KT 9999 // NCD 14/08 Q1025

Tid: 02:37 (01:37 UTC)

Vejrudsigter

Denne rapport blev lavet for 11 timer og 48 minutter siden, kl. 13:49 UTC
Foreløbig gælder fra 23 på 15 UTC til 23 på 23 UTC
Vind 4 kt fra varierende retninger
Sigt 10 km eller mere
ingen skyer under 1500m og ingen cumulonimbus

TAF: LXGB 231349Z 2315/2323 VRB04KT CAVOK

Vejrobservationer og prognoser fra mere end 4000 lufthavne (METAR og TAF).

De gule og røde prikker repræsenterer de meteorologiske stationer.

Flyt musen over at se navnet på stationen.

Så klik over at se vejr observationer og prognoser.

At skifte det kort: Klik på de grønne knapper med et sort kors for at zoome ind; på den grønne knap med en bindestreg for at zoome ud; eller på de grønne pile for tilstødende kort.


METAR-TAF: